Time;durP1;ratioP1;P1;durP2;ratioP2;P2;SDS_P1;SDS_P2;PMS_P1;PMS_P2;Temp;Humidity;BMP_temperature;BMP_pressure;BME280_temperature;BME280_humidity;BME280_pressure;Samples;Min_cycle;Max_cycle;Signal;HPM_P1;HPM_P2
2023/09/03 00:02:15;;;;;;;27.87;24.20;;;;;;;-148.88;100.00;-17125.47;4979671;28;20089;-88
2023/09/03 00:05:27;;;;;;;28.48;23.60;;;;;;;-148.88;100.00;-17125.47;4993463;28;20038;-88
2023/09/03 00:08:13;;;;;;;26.90;22.30;;;;;;;-148.88;100.00;-17125.47;4933378;29;20028;-87
2023/09/03 00:11:03;;;;;;;23.60;21.10;;;;;;;-148.88;100.00;-17125.47;4993256;28;20035;-88
2023/09/03 00:13:51;;;;;;;27.92;23.00;;;;;;;-148.88;100.00;-17125.47;4993901;28;20030;-88
2023/09/03 00:16:22;;;;;;;27.48;22.30;;;;;;;-148.88;100.00;-17125.47;4995527;28;20045;-88
2023/09/03 00:19:17;;;;;;;29.33;23.75;;;;;;;-148.88;100.00;-17125.47;4993802;28;20046;-88
2023/09/03 00:21:54;;;;;;;27.95;23.40;;;;;;;-148.88;100.00;-17125.47;4919567;29;20044;-88
2023/09/03 00:24:25;;;;;;;26.23;22.65;;;;;;;-148.88;100.00;-17125.47;4993845;28;20026;-88
2023/09/03 00:26:50;;;;;;;29.65;23.65;;;;;;;-148.88;100.00;-17125.47;5000903;23;20041;-73
2023/09/03 00:29:16;;;;;;;29.30;23.85;;;;;;;-148.88;100.00;-17125.47;4992723;28;20125;-73
2023/09/03 00:31:41;;;;;;;27.35;24.15;;;;;;;-148.88;100.00;-17125.47;4992758;28;20109;-73
2023/09/03 00:34:06;;;;;;;29.95;23.45;;;;;;;-148.88;100.00;-17125.47;4992655;28;20152;-73
2023/09/03 00:36:31;;;;;;;26.08;22.50;;;;;;;-148.88;100.00;-17125.47;4993180;28;20045;-73
2023/09/03 00:38:57;;;;;;;26.00;21.52;;;;;;;-148.88;100.00;-17125.47;4995673;28;20567;-73
2023/09/03 00:41:22;;;;;;;25.45;21.85;;;;;;;-148.88;100.00;-17125.47;4996370;28;20049;-73
2023/09/03 00:43:48;;;;;;;25.58;20.75;;;;;;;-148.88;100.00;-17125.47;4996839;28;20027;-73
2023/09/03 00:46:13;;;;;;;24.30;20.10;;;;;;;-148.88;100.00;-17125.47;4996460;28;20394;-74
2023/09/03 00:48:40;;;;;;;21.83;18.50;;;;;;;-148.88;100.00;-17125.47;4994852;28;20019;-73
2023/09/03 00:51:08;;;;;;;25.65;19.95;;;;;;;-148.88;100.00;-17125.47;4996027;28;20022;-73
2023/09/03 00:53:36;;;;;;;22.80;19.05;;;;;;;-148.88;100.00;-17125.47;4996064;28;20037;-74
2023/09/03 00:56:01;;;;;;;22.80;19.58;;;;;;;-148.88;100.00;-17125.47;4994781;28;20022;-73
2023/09/03 00:58:27;;;;;;;24.88;19.83;;;;;;;-148.88;100.00;-17125.47;4996091;28;20432;-73
2023/09/03 01:00:52;;;;;;;25.92;20.17;;;;;;;-148.88;100.00;-17125.47;4996048;28;20561;-73
2023/09/03 01:03:18;;;;;;;28.55;22.73;;;;;;;-148.88;100.00;-17125.47;4994700;28;20389;-73
2023/09/03 01:05:43;;;;;;;31.05;23.35;;;;;;;-148.88;100.00;-17125.47;4995898;28;20026;-73
2023/09/03 01:08:09;;;;;;;31.02;24.00;;;;;;;-148.88;100.00;-17125.47;4995906;28;20029;-73
2023/09/03 01:11:03;;;;;;;29.88;22.13;;;;;;;-148.88;100.00;-17125.47;4994512;28;20025;-73
2023/09/03 01:13:53;;;;;;;28.05;23.30;;;;;;;-148.88;100.00;-17125.47;4996153;28;20085;-73
2023/09/03 01:16:36;;;;;;;29.80;24.38;;;;;;;-148.88;100.00;-17125.47;4996108;28;20028;-73
2023/09/03 01:19:18;;;;;;;31.33;23.88;;;;;;;-148.88;100.00;-17125.47;4995968;28;20081;-73
2023/09/03 01:21:48;;;;;;;31.67;25.23;;;;;;;-148.88;100.00;-17125.47;4995981;28;20523;-76
2023/09/03 01:24:32;;;;;;;31.23;24.27;;;;;;;-148.88;100.00;-17125.47;4995690;28;20057;-75
2023/09/03 01:27:04;;;;;;;29.90;23.58;;;;;;;-148.88;100.00;-17125.47;4994150;28;20125;-75
2023/09/03 01:29:31;;;;;;;32.25;23.65;;;;;;;-148.88;100.00;-17125.47;4995520;28;20053;-75
2023/09/03 01:31:59;;;;;;;32.15;24.40;;;;;;;-148.88;100.00;-17125.47;4994252;28;20037;-75
2023/09/03 01:34:26;;;;;;;31.73;23.58;;;;;;;-148.88;100.00;-17125.47;4995445;28;20026;-75
2023/09/03 01:36:52;;;;;;;32.15;24.23;;;;;;;-148.88;100.00;-17125.47;4994162;28;20113;-75
2023/09/03 01:39:17;;;;;;;29.67;24.55;;;;;;;-148.88;100.00;-17125.47;4995285;28;20102;-75
2023/09/03 01:41:43;;;;;;;30.55;24.33;;;;;;;-148.88;100.00;-17125.47;4995580;28;20026;-75
2023/09/03 01:44:09;;;;;;;32.63;25.10;;;;;;;-148.88;100.00;-17125.47;4994003;28;20029;-75
2023/09/03 01:46:53;;;;;;;33.00;26.05;;;;;;;-148.88;100.00;-17125.47;4993821;28;20072;-75
2023/09/03 01:49:31;;;;;;;33.72;26.55;;;;;;;-148.88;100.00;-17125.47;4994240;28;20030;-75
2023/09/03 01:52:15;;;;;;;35.65;25.88;;;;;;;-148.88;100.00;-17125.47;4995391;28;20388;-75
2023/09/03 01:54:47;;;;;;;34.65;26.17;;;;;;;-148.88;100.00;-17125.47;4993808;28;20042;-75
2023/09/03 01:57:15;;;;;;;34.05;26.70;;;;;;;-148.88;100.00;-17125.47;4994925;28;20018;-76
2023/09/03 01:59:43;;;;;;;36.15;27.05;;;;;;;-148.88;100.00;-17125.47;4993739;28;20069;-75
2023/09/03 02:02:10;;;;;;;37.25;26.55;;;;;;;-148.88;100.00;-17125.47;4994875;28;20027;-76
2023/09/03 02:04:36;;;;;;;33.90;26.83;;;;;;;-148.88;100.00;-17125.47;4994840;28;20101;-75
2023/09/03 02:07:01;;;;;;;38.15;26.65;;;;;;;-148.88;100.00;-17125.47;4993403;28;20117;-73
2023/09/03 02:09:26;;;;;;;36.28;26.85;;;;;;;-148.88;100.00;-17125.47;4994618;28;20026;-75
2023/09/03 02:11:52;;;;;;;38.20;26.83;;;;;;;-148.88;100.00;-17125.47;4994826;28;20076;-75
2023/09/03 02:14:17;;;;;;;36.70;27.70;;;;;;;-148.88;100.00;-17125.47;4994628;28;20076;-75
2023/09/03 02:16:42;;;;;;;35.90;27.15;;;;;;;-148.88;100.00;-17125.47;4994681;28;20026;-75
2023/09/03 02:19:08;;;;;;;40.67;27.65;;;;;;;-148.88;100.00;-17125.47;4993273;28;20057;-75
2023/09/03 02:21:33;;;;;;;39.58;28.25;;;;;;;-148.88;100.00;-17125.47;4994540;28;20038;-75
2023/09/03 02:23:59;;;;;;;39.03;27.10;;;;;;;-148.88;100.00;-17125.47;4994690;28;20022;-75
2023/09/03 02:26:24;;;;;;;36.97;26.98;;;;;;;-148.88;100.00;-17125.47;4994408;28;20438;-75
2023/09/03 02:28:49;;;;;;;35.22;25.85;;;;;;;-148.88;100.00;-17125.47;4993039;28;20022;-75
2023/09/03 02:31:15;;;;;;;35.30;26.30;;;;;;;-148.88;100.00;-17125.47;4993121;28;20039;-75
2023/09/03 02:33:40;;;;;;;34.92;25.35;;;;;;;-148.88;100.00;-17125.47;4993115;28;20022;-75
2023/09/03 02:36:06;;;;;;;32.17;24.60;;;;;;;-148.88;100.00;-17125.47;4992962;28;20036;-76
2023/09/03 02:38:32;;;;;;;36.08;26.98;;;;;;;-148.88;100.00;-17125.47;4994265;28;20018;-75
2023/09/03 02:40:57;;;;;;;33.25;25.45;;;;;;;-148.88;100.00;-17125.47;4994083;28;20092;-75
2023/09/03 02:43:23;;;;;;;37.10;26.63;;;;;;;-148.88;100.00;-17125.47;4994096;28;20392;-76
2023/09/03 02:45:49;;;;;;;35.90;26.25;;;;;;;-148.88;100.00;-17125.47;4994150;28;20026;-75
2023/09/03 02:48:15;;;;;;;34.72;26.33;;;;;;;-148.88;100.00;-17125.47;4994000;28;20482;-75
2023/09/03 02:50:40;;;;;;;33.60;25.67;;;;;;;-148.88;100.00;-17125.47;4993975;28;20181;-75
2023/09/03 02:53:06;;;;;;;35.28;25.30;;;;;;;-148.88;100.00;-17125.47;4994022;28;20561;-75
2023/09/03 02:55:32;;;;;;;33.25;25.73;;;;;;;-148.88;100.00;-17125.47;4992652;28;20049;-75
2023/09/03 02:57:58;;;;;;;36.88;25.77;;;;;;;-148.88;100.00;-17125.47;4992572;28;20026;-75
2023/09/03 03:00:24;;;;;;;32.85;23.83;;;;;;;-148.88;100.00;-17125.47;4994168;28;20108;-75
2023/09/03 03:02:52;;;;;;;28.98;22.25;;;;;;;-148.88;100.00;-17125.47;4994119;28;20026;-75
2023/09/03 03:05:18;;;;;;;26.88;21.50;;;;;;;-148.88;100.00;-17125.47;4994117;28;20026;-75
2023/09/03 03:07:44;;;;;;;28.23;22.70;;;;;;;-148.88;100.00;-17125.47;4993840;28;20546;-75
2023/09/03 03:10:11;;;;;;;27.00;22.00;;;;;;;-148.88;100.00;-17125.47;4993885;28;20022;-76
2023/09/03 03:12:37;;;;;;;28.42;24.10;;;;;;;-148.88;100.00;-17125.47;4994254;28;20022;-76
2023/09/03 03:15:03;;;;;;;28.63;23.42;;;;;;;-148.88;100.00;-17125.47;4993682;28;20045;-75
2023/09/03 03:17:28;;;;;;;32.25;25.85;;;;;;;-148.88;100.00;-17125.47;4993507;28;20481;-75
2023/09/03 03:19:54;;;;;;;31.92;25.40;;;;;;;-148.88;100.00;-17125.47;4993675;28;20030;-75
2023/09/03 03:22:19;;;;;;;38.55;28.25;;;;;;;-148.88;100.00;-17125.47;4993652;28;20029;-75
2023/09/03 03:24:45;;;;;;;40.22;30.33;;;;;;;-148.88;100.00;-17125.47;4993513;28;20511;-75
2023/09/03 03:27:10;;;;;;;47.03;30.70;;;;;;;-148.88;100.00;-17125.47;4993451;28;20030;-75
2023/09/03 03:29:36;;;;;;;43.35;31.13;;;;;;;-148.88;100.00;-17125.47;4993527;28;20041;-75
2023/09/03 03:32:01;;;;;;;46.75;32.35;;;;;;;-148.88;100.00;-17125.47;4992166;28;20026;-75
2023/09/03 03:34:27;;;;;;;51.45;33.72;;;;;;;-148.88;100.00;-17125.47;4993385;28;20026;-75
2023/09/03 03:36:53;;;;;;;50.08;34.35;;;;;;;-148.88;100.00;-17125.47;4993309;28;20052;-75
2023/09/03 03:39:22;;;;;;;51.55;34.70;;;;;;;-148.88;100.00;-17125.47;4993265;28;20019;-75
2023/09/03 03:41:47;;;;;;;47.70;34.47;;;;;;;-148.88;100.00;-17125.47;4993232;28;20026;-75
2023/09/03 03:44:12;;;;;;;54.10;35.95;;;;;;;-148.88;100.00;-17125.47;4993328;28;20409;-75
2023/09/03 03:46:38;;;;;;;57.75;35.42;;;;;;;-148.88;100.00;-17125.47;4993210;28;20026;-75
2023/09/03 03:49:04;;;;;;;56.50;36.05;;;;;;;-148.88;100.00;-17125.47;4993070;28;20496;-75
2023/09/03 03:51:29;;;;;;;59.92;37.75;;;;;;;-148.88;100.00;-17125.47;4993222;28;20030;-75
2023/09/03 03:53:55;;;;;;;60.10;37.72;;;;;;;-148.88;100.00;-17125.47;4993155;28;20134;-75
2023/09/03 03:56:21;;;;;;;55.35;35.45;;;;;;;-148.88;100.00;-17125.47;4993381;28;20019;-75
2023/09/03 03:58:47;;;;;;;57.47;36.85;;;;;;;-148.88;100.00;-17125.47;4991684;28;20382;-75
2023/09/03 04:01:18;;;;;;;60.58;36.70;;;;;;;-148.88;100.00;-17125.47;4991761;28;20030;-75
2023/09/03 04:03:45;;;;;;;59.35;38.58;;;;;;;-148.88;100.00;-17125.47;4991840;28;20058;-75
2023/09/03 04:06:11;;;;;;;56.42;37.03;;;;;;;-148.88;100.00;-17125.47;4993108;28;20105;-75
2023/09/03 04:08:38;;;;;;;56.92;37.08;;;;;;;-148.88;100.00;-17125.47;4991695;28;20106;-75
2023/09/03 04:11:08;;;;;;;59.40;37.85;;;;;;;-148.88;100.00;-17125.47;4992917;28;20022;-75
2023/09/03 04:13:34;;;;;;;56.17;37.45;;;;;;;-148.88;100.00;-17125.47;4995583;28;20026;-75
2023/09/03 04:16:00;;;;;;;52.25;35.75;;;;;;;-148.88;100.00;-17125.47;4996920;28;20026;-75
2023/09/03 04:18:27;;;;;;;55.67;35.88;;;;;;;-148.88;100.00;-17125.47;4996679;28;20088;-75
2023/09/03 04:20:56;;;;;;;51.63;34.25;;;;;;;-148.88;100.00;-17125.47;4995559;28;20486;-76
2023/09/03 04:23:23;;;;;;;53.05;34.65;;;;;;;-148.88;100.00;-17125.47;4996662;28;20030;-75
2023/09/03 04:25:49;;;;;;;56.50;36.42;;;;;;;-148.88;100.00;-17125.47;4996828;28;20030;-76
2023/09/03 04:28:14;;;;;;;55.95;37.22;;;;;;;-148.88;100.00;-17125.47;4996390;28;20089;-75
2023/09/03 04:30:40;;;;;;;52.78;35.25;;;;;;;-148.88;100.00;-17125.47;4996549;28;20453;-75
2023/09/03 04:33:07;;;;;;;49.65;33.92;;;;;;;-148.88;100.00;-17125.47;4995273;28;20018;-75
2023/09/03 04:35:33;;;;;;;51.15;34.47;;;;;;;-148.88;100.00;-17125.47;4996518;28;20018;-75
2023/09/03 04:37:58;;;;;;;53.42;34.40;;;;;;;-148.88;100.00;-17125.47;4996663;28;20022;-75
2023/09/03 04:40:24;;;;;;;51.50;33.85;;;;;;;-148.88;100.00;-17125.47;4995133;28;20022;-75
2023/09/03 04:42:49;;;;;;;50.35;33.00;;;;;;;-148.88;100.00;-17125.47;4995293;28;20026;-75
2023/09/03 04:45:15;;;;;;;54.38;34.05;;;;;;;-148.88;100.00;-17125.47;4996746;28;20030;-75
2023/09/03 04:47:41;;;;;;;49.45;33.38;;;;;;;-148.88;100.00;-17125.47;4996650;28;20032;-75
2023/09/03 04:50:07;;;;;;;48.83;33.53;;;;;;;-148.88;100.00;-17125.47;4996591;28;20105;-75
2023/09/03 04:52:34;;;;;;;49.83;34.05;;;;;;;-148.88;100.00;-17125.47;4995443;28;20116;-75
2023/09/03 04:54:59;;;;;;;46.53;32.78;;;;;;;-148.88;100.00;-17125.47;4996656;28;20448;-75
2023/09/03 04:57:25;;;;;;;47.40;30.95;;;;;;;-148.88;100.00;-17125.47;4995360;28;20026;-75
2023/09/03 04:59:51;;;;;;;45.33;30.95;;;;;;;-148.88;100.00;-17125.47;4996521;28;20026;-75
2023/09/03 05:02:17;;;;;;;44.35;30.42;;;;;;;-148.88;100.00;-17125.47;4996717;28;20026;-76
2023/09/03 05:04:43;;;;;;;43.75;30.17;;;;;;;-148.88;100.00;-17125.47;4996704;28;20393;-76
2023/09/03 05:07:08;;;;;;;39.22;27.98;;;;;;;-148.88;100.00;-17125.47;4995042;28;20044;-75
2023/09/03 05:09:34;;;;;;;28.55;23.20;;;;;;;-148.88;100.00;-17125.47;4996260;28;20041;-76
2023/09/03 05:11:59;;;;;;;26.33;22.67;;;;;;;-148.88;100.00;-17125.47;4996591;28;20065;-75
2023/09/03 05:14:24;;;;;;;31.02;22.10;;;;;;;-148.88;100.00;-17125.47;4996232;28;20034;-75
2023/09/03 05:16:50;;;;;;;23.30;20.33;;;;;;;-148.88;100.00;-17125.47;4996147;28;20061;-75
2023/09/03 05:19:15;;;;;;;24.15;21.40;;;;;;;-148.88;100.00;-17125.47;4994871;28;20121;-75
2023/09/03 05:21:42;;;;;;;27.27;22.27;;;;;;;-148.88;100.00;-17125.47;4996053;28;20029;-75
2023/09/03 05:24:08;;;;;;;26.42;22.17;;;;;;;-148.88;100.00;-17125.47;4994477;28;20026;-75
2023/09/03 05:26:34;;;;;;;30.92;24.27;;;;;;;-148.88;100.00;-17125.47;4995246;28;20022;-74
2023/09/03 05:28:59;;;;;;;30.35;23.98;;;;;;;-148.88;100.00;-17125.47;4993984;28;20041;-75
2023/09/03 05:31:25;;;;;;;33.53;26.27;;;;;;;-148.88;100.00;-17125.47;4994470;28;20049;-75
2023/09/03 05:33:50;;;;;;;32.63;25.70;;;;;;;-148.88;100.00;-17125.47;4995170;28;20030;-74
2023/09/03 05:36:16;;;;;;;38.90;28.65;;;;;;;-148.88;100.00;-17125.47;4993818;28;20073;-74
2023/09/03 05:38:42;;;;;;;40.72;29.25;;;;;;;-148.88;100.00;-17125.47;4993920;28;20031;-75
2023/09/03 05:41:11;;;;;;;42.33;29.73;;;;;;;-148.88;100.00;-17125.47;4994987;28;20029;-75
2023/09/03 05:43:37;;;;;;;46.88;31.00;;;;;;;-148.88;100.00;-17125.47;4993681;28;20030;-75
2023/09/03 05:46:04;;;;;;;49.67;31.70;;;;;;;-148.88;100.00;-17125.47;4995038;28;20026;-75
2023/09/03 05:48:29;;;;;;;52.88;33.78;;;;;;;-148.88;100.00;-17125.47;4993619;28;20098;-75
2023/09/03 05:50:57;;;;;;;59.38;34.80;;;;;;;-148.88;100.00;-17125.47;4994772;28;20030;-75
2023/09/03 05:53:23;;;;;;;52.72;34.22;;;;;;;-148.88;100.00;-17125.47;4994693;28;20027;-72
2023/09/03 05:55:49;;;;;;;51.70;33.83;;;;;;;-148.88;100.00;-17125.47;4993663;28;20022;-73
2023/09/03 05:58:14;;;;;;;50.00;33.08;;;;;;;-148.88;100.00;-17125.47;4994736;28;20397;-72
2023/09/03 06:00:41;;;;;;;49.92;33.72;;;;;;;-148.88;100.00;-17125.47;4993482;28;20393;-73
2023/09/03 06:03:06;;;;;;;49.55;33.33;;;;;;;-148.88;100.00;-17125.47;4994917;28;20029;-73
2023/09/03 06:05:32;;;;;;;54.40;32.90;;;;;;;-148.88;100.00;-17125.47;4994593;28;20105;-73
2023/09/03 06:07:58;;;;;;;53.58;31.02;;;;;;;-148.88;100.00;-17125.47;4994489;28;20400;-73
2023/09/03 06:10:24;;;;;;;51.63;32.40;;;;;;;-148.88;100.00;-17125.47;4994560;28;20022;-73
2023/09/03 06:12:50;;;;;;;46.58;31.25;;;;;;;-148.88;100.00;-17125.47;4994488;28;20026;-73
2023/09/03 06:15:15;;;;;;;45.85;31.10;;;;;;;-148.88;100.00;-17125.47;4994517;28;20022;-73
2023/09/03 06:17:40;;;;;;;52.03;31.70;;;;;;;-148.88;100.00;-17125.47;4994315;28;20022;-73
2023/09/03 06:20:10;;;;;;;51.90;32.42;;;;;;;-148.88;100.00;-17125.47;4994235;28;20050;-73
2023/09/03 06:22:35;;;;;;;48.78;31.25;;;;;;;-148.88;100.00;-17125.47;4994216;28;20497;-73
2023/09/03 06:25:01;;;;;;;48.30;31.35;;;;;;;-148.88;100.00;-17125.47;4994141;28;20062;-73
2023/09/03 06:27:26;;;;;;;49.33;30.95;;;;;;;-148.88;100.00;-17125.47;4992577;28;20033;-73
2023/09/03 06:29:51;;;;;;;48.40;30.30;;;;;;;-148.88;100.00;-17125.47;4994039;28;20030;-73
2023/09/03 06:32:17;;;;;;;49.95;32.42;;;;;;;-148.88;100.00;-17125.47;4992761;28;20538;-72
2023/09/03 06:34:42;;;;;;;47.20;30.23;;;;;;;-148.88;100.00;-17125.47;4994088;28;20026;-73
2023/09/03 06:37:08;;;;;;;45.78;31.25;;;;;;;-148.88;100.00;-17125.47;4993591;28;20109;-73
2023/09/03 06:39:33;;;;;;;49.15;32.22;;;;;;;-148.88;100.00;-17125.47;4994088;28;20026;-73
2023/09/03 06:41:58;;;;;;;49.97;31.23;;;;;;;-148.88;100.00;-17125.47;4993960;28;20060;-73
2023/09/03 06:44:24;;;;;;;47.00;31.20;;;;;;;-148.88;100.00;-17125.47;4993839;28;20070;-73
2023/09/03 06:46:50;;;;;;;46.05;31.98;;;;;;;-148.88;100.00;-17125.47;4994082;28;20080;-73
2023/09/03 06:49:15;;;;;;;45.70;31.75;;;;;;;-148.88;100.00;-17125.47;4993578;28;20050;-73
2023/09/03 06:51:41;;;;;;;45.03;31.27;;;;;;;-148.88;100.00;-17125.47;4993694;28;20030;-73
2023/09/03 06:54:06;;;;;;;44.65;30.05;;;;;;;-148.88;100.00;-17125.47;4993690;28;20520;-73
2023/09/03 06:56:31;;;;;;;47.15;31.45;;;;;;;-148.88;100.00;-17125.47;4993568;28;20018;-73
2023/09/03 06:58:57;;;;;;;47.47;31.65;;;;;;;-148.88;100.00;-17125.47;4993535;28;20019;-73
2023/09/03 07:01:22;;;;;;;46.00;30.77;;;;;;;-148.88;100.00;-17125.47;4992118;28;20564;-74
2023/09/03 07:03:47;;;;;;;43.88;31.92;;;;;;;-148.88;100.00;-17125.47;4992002;28;20117;-73
2023/09/03 07:06:13;;;;;;;46.65;30.77;;;;;;;-148.88;100.00;-17125.47;4993412;28;20022;-74
2023/09/03 07:08:38;;;;;;;47.42;31.88;;;;;;;-148.88;100.00;-17125.47;4991978;28;20056;-73
2023/09/03 07:11:03;;;;;;;47.03;32.03;;;;;;;-148.88;100.00;-17125.47;4993465;28;20026;-73
2023/09/03 07:13:29;;;;;;;47.53;31.40;;;;;;;-148.88;100.00;-17125.47;4993387;28;20025;-73
2023/09/03 07:15:54;;;;;;;44.97;32.13;;;;;;;-148.88;100.00;-17125.47;4993387;28;20511;-74
2023/09/03 07:18:20;;;;;;;40.40;27.65;;;;;;;-148.88;100.00;-17125.47;4993512;28;20397;-73
2023/09/03 07:20:45;;;;;;;42.20;29.25;;;;;;;-148.88;100.00;-17125.47;4992046;28;20072;-73
2023/09/03 07:23:11;;;;;;;45.97;29.63;;;;;;;-148.88;100.00;-17125.47;4993259;28;20378;-74
2023/09/03 07:25:36;;;;;;;43.38;29.60;;;;;;;-148.88;100.00;-17125.47;4993464;28;20088;-74
2023/09/03 07:28:02;;;;;;;45.75;31.67;;;;;;;-148.88;100.00;-17125.47;4993102;28;20108;-74
2023/09/03 07:30:29;;;;;;;47.47;30.80;;;;;;;-148.88;100.00;-17125.47;4992901;28;20034;-73
2023/09/03 07:32:55;;;;;;;43.13;30.55;;;;;;;-148.88;100.00;-17125.47;4993033;28;20037;-73
2023/09/03 07:35:20;;;;;;;41.72;31.42;;;;;;;-148.88;100.00;-17125.47;4991701;28;20026;-74
2023/09/03 07:37:46;;;;;;;42.78;30.15;;;;;;;-148.88;100.00;-17125.47;4993236;28;20029;-73
2023/09/03 07:40:11;;;;;;;41.50;28.15;;;;;;;-148.88;100.00;-17125.47;4992957;28;20037;-73
2023/09/03 07:42:37;;;;;;;38.80;26.25;;;;;;;-148.88;100.00;-17125.47;4991688;28;20053;-74
2023/09/03 07:45:02;;;;;;;39.50;27.00;;;;;;;-148.88;100.00;-17125.47;4991661;28;20121;-74
2023/09/03 07:47:28;;;;;;;35.38;24.38;;;;;;;-148.88;100.00;-17125.47;4992373;28;20034;-73
2023/09/03 07:49:53;;;;;;;31.75;22.67;;;;;;;-148.88;100.00;-17125.47;4992766;28;20481;-73
2023/09/03 07:52:18;;;;;;;29.63;21.17;;;;;;;-148.88;100.00;-17125.47;4993006;28;20109;-74
2023/09/03 07:54:44;;;;;;;22.88;17.77;;;;;;;-148.88;100.00;-17125.47;4992080;28;20378;-74
2023/09/03 07:57:10;;;;;;;23.50;16.45;;;;;;;-148.88;100.00;-17125.47;4993486;28;20449;-74
2023/09/03 07:59:36;;;;;;;21.33;15.15;;;;;;;-148.88;100.00;-17125.47;4993822;28;20508;-74
2023/09/03 08:02:02;;;;;;;21.55;14.48;;;;;;;-148.88;100.00;-17125.47;4992131;28;20030;-74
2023/09/03 08:04:28;;;;;;;12.23;9.50;;;;;;;-148.88;100.00;-17125.47;4991974;28;20068;-74
2023/09/03 08:06:54;;;;;;;23.63;15.98;;;;;;;-148.88;100.00;-17125.47;4992018;28;20514;-75
2023/09/03 08:09:23;;;;;;;22.08;15.93;;;;;;;-148.88;100.00;-17125.47;4993041;28;20039;-75
2023/09/03 08:11:49;;;;;;;14.50;10.40;;;;;;;-148.88;100.00;-17125.47;4992114;28;20026;-75
2023/09/03 08:14:15;;;;;;;14.52;9.60;;;;;;;-148.88;100.00;-17125.47;4991875;28;20026;-75
2023/09/03 08:16:41;;;;;;;14.50;8.40;;;;;;;-148.88;100.00;-17125.47;4992923;28;20114;-75
2023/09/03 08:19:06;;;;;;;12.90;9.90;;;;;;;-148.88;100.00;-17125.47;4992662;28;20117;-74
2023/09/03 08:21:32;;;;;;;12.82;9.30;;;;;;;-148.88;100.00;-17125.47;4991377;28;20085;-74
2023/09/03 08:23:58;;;;;;;12.38;8.40;;;;;;;-148.88;100.00;-17125.47;4993018;28;20033;-74
2023/09/03 08:26:23;;;;;;;8.60;6.90;;;;;;;-148.88;100.00;-17125.47;4992651;28;20105;-75
2023/09/03 08:28:49;;;;;;;12.25;8.10;;;;;;;-148.88;100.00;-17125.47;4992747;28;20050;-74
2023/09/03 08:31:14;;;;;;;8.32;5.53;;;;;;;-148.88;100.00;-17125.47;4992575;28;20504;-74
2023/09/03 08:33:40;;;;;;;8.82;7.00;;;;;;;-148.88;100.00;-17125.47;4992917;28;20018;-74
2023/09/03 08:36:06;;;;;;;12.77;7.97;;;;;;;-148.88;100.00;-17125.47;4992740;28;20058;-75
2023/09/03 08:38:32;;;;;;;12.65;7.85;;;;;;;-148.88;100.00;-17125.47;4992742;28;20451;-74
2023/09/03 08:40:57;;;;;;;11.23;6.32;;;;;;;-148.88;100.00;-17125.47;4991371;28;20026;-75
2023/09/03 08:43:25;;;;;;;8.13;5.22;;;;;;;-148.88;100.00;-17125.47;4992512;28;20030;-75
2023/09/03 08:45:58;;;;;;;7.10;5.60;;;;;;;-148.88;100.00;-17125.47;4991314;28;20034;-74
2023/09/03 08:48:24;;;;;;;10.88;5.90;;;;;;;-148.88;100.00;-17125.47;4992493;28;20026;-74
2023/09/03 08:50:51;;;;;;;9.07;4.38;;;;;;;-148.88;100.00;-17125.47;4992327;28;20384;-74
2023/09/03 08:53:17;;;;;;;8.95;5.63;;;;;;;-148.88;100.00;-17125.47;4992448;28;20030;-74
2023/09/03 08:55:43;;;;;;;6.03;5.28;;;;;;;-148.88;100.00;-17125.47;4992499;28;20026;-74
2023/09/03 08:58:09;;;;;;;8.20;5.15;;;;;;;-148.88;100.00;-17125.47;4992600;28;20030;-74
2023/09/03 09:00:36;;;;;;;4.18;3.17;;;;;;;-148.88;100.00;-17125.47;4995903;28;20022;-75
2023/09/03 09:03:05;;;;;;;5.63;4.07;;;;;;;-148.88;100.00;-17125.47;4996254;28;20032;-74
2023/09/03 09:05:32;;;;;;;9.38;4.65;;;;;;;-148.88;100.00;-17125.47;4994398;28;20022;-75
2023/09/03 09:07:59;;;;;;;7.90;5.30;;;;;;;-148.88;100.00;-17125.47;4995886;28;20049;-75
2023/09/03 09:10:33;;;;;;;8.35;6.03;;;;;;;-148.88;100.00;-17125.47;4995866;28;20125;-75
2023/09/03 09:13:06;;;;;;;;;;;;;;;-148.88;100.00;-17125.47;4994995;28;20034;-75
2023/09/03 09:15:35;;;;;;;7.70;5.43;;;;;;;-148.88;100.00;-17125.47;4995877;28;20300;-75
2023/09/03 09:18:01;;;;;;;6.95;4.80;;;;;;;-148.88;100.00;-17125.47;4995445;28;20037;-75
2023/09/03 09:20:26;;;;;;;9.85;4.32;;;;;;;-148.88;100.00;-17125.47;4995648;28;20014;-75
2023/09/03 09:22:54;;;;;;;4.38;2.90;;;;;;;-148.88;100.00;-17125.47;4994155;28;20052;-75
2023/09/03 09:25:21;;;;;;;4.90;2.45;;;;;;;-148.88;100.00;-17125.47;4995457;28;20023;-75
2023/09/03 09:27:48;;;;;;;5.25;2.70;;;;;;;-148.88;100.00;-17125.47;4995326;28;20076;-75
2023/09/03 09:30:27;;;;;;;5.93;2.50;;;;;;;-148.88;100.00;-17125.47;4993224;28;20031;-73
2023/09/03 09:33:06;;;;;;;5.07;2.80;;;;;;;-148.88;100.00;-17125.47;4995368;28;20029;-74
2023/09/03 09:35:32;;;;;;;5.10;2.20;;;;;;;-148.88;99.95;-17125.47;4993896;28;20034;-73
2023/09/03 09:38:05;;;;;;;4.82;2.20;;;;;;;-148.88;100.00;-17125.47;4995109;28;20022;-74
2023/09/03 09:40:30;;;;;;;4.63;2.50;;;;;;;-148.88;99.38;-17125.47;4993647;28;20027;-74
2023/09/03 09:42:57;;;;;;;4.50;2.17;;;;;;;-148.88;100.00;-17125.47;4993794;28;20184;-74
2023/09/03 09:45:23;;;;;;;4.43;2.38;;;;;;;-148.88;98.03;-17125.47;4993773;28;20026;-74
2023/09/03 09:48:08;;;;;;;3.70;2.33;;;;;;;-148.88;98.28;-17125.47;4993337;28;20072;-74
2023/09/03 09:50:35;;;;;;;5.88;2.30;;;;;;;-148.88;98.25;-17125.47;4994824;28;20482;-74
2023/09/03 09:53:01;;;;;;;6.28;2.85;;;;;;;-148.88;95.80;-17125.47;4995013;28;20493;-74
2023/09/03 09:55:31;;;;;;;5.10;2.08;;;;;;;-148.88;96.36;-17125.47;4994716;28;20485;-74
2023/09/03 09:57:58;;;;;;;3.60;1.85;;;;;;;-148.88;97.26;-17125.47;4993705;28;20026;-74
2023/09/03 10:00:34;;;;;;;3.17;1.80;;;;;;;-148.88;90.90;-17125.47;4994821;28;20487;-74
2023/09/03 10:03:00;;;;;;;4.35;2.25;;;;;;;-148.88;92.17;-17125.47;4994863;28;20156;-75
2023/09/03 10:05:26;;;;;;;4.15;2.25;;;;;;;-148.88;86.15;-17125.47;4994780;28;20035;-74
2023/09/03 10:07:53;;;;;;;4.78;2.00;;;;;;;-148.88;89.79;-17125.47;4993491;28;20031;-74
2023/09/03 10:10:19;;;;;;;4.00;1.85;;;;;;;-148.88;88.06;-17125.47;4993868;28;20088;-74
2023/09/03 10:12:44;;;;;;;3.47;2.00;;;;;;;-148.88;88.94;-17125.47;4993277;28;20038;-74
2023/09/03 10:15:12;;;;;;;6.75;1.92;;;;;;;-148.88;87.89;-17125.47;4994697;28;20057;-74
2023/09/03 10:17:40;;;;;;;4.22;1.77;;;;;;;-148.88;86.30;-17125.47;4994836;28;20417;-74
2023/09/03 10:20:10;;;;;;;3.35;1.67;;;;;;;-148.88;82.08;-17125.47;4994519;28;20485;-74
2023/09/03 10:22:40;;;;;;;4.22;1.83;;;;;;;-148.88;84.73;-17125.47;4994498;28;20077;-74
2023/09/03 10:25:18;;;;;;;3.25;1.30;;;;;;;-148.88;73.49;-17125.47;4994382;28;20023;-75
2023/09/03 10:27:48;;;;;;;3.42;1.30;;;;;;;-148.88;74.83;-17125.47;4994243;28;20041;-74
2023/09/03 10:30:20;;;;;;;4.10;1.33;;;;;;;-148.88;73.35;-17125.47;4994341;28;20022;-74
2023/09/03 10:32:47;;;;;;;3.75;1.52;;;;;;;-148.88;77.46;-17125.47;4994541;28;20022;-73
2023/09/03 10:35:13;;;;;;;3.35;1.50;;;;;;;-148.88;75.60;-17125.47;4994289;28;20029;-74
2023/09/03 10:37:40;;;;;;;3.78;1.83;;;;;;;-148.88;77.61;-17125.47;4994167;28;20023;-73
2023/09/03 10:40:24;;;;;;;4.47;1.88;;;;;;;-148.88;79.76;-17125.47;4994098;28;20392;-73
2023/09/03 10:43:18;;;;;;;3.58;1.67;;;;;;;-148.88;84.22;-17125.47;4993947;28;20041;-73
2023/09/03 10:46:06;;;;;;;2.90;1.60;;;;;;;-148.88;79.76;-17125.47;4994311;28;20023;-74
2023/09/03 10:48:34;;;;;;;3.95;1.70;;;;;;;-148.88;81.47;-17125.47;5054769;23;20523;-89
2023/09/03 10:51:00;;;;;;;4.20;1.52;;;;;;;-148.88;79.39;-17125.47;5055401;28;20025;-87
2023/09/03 10:53:47;;;;;;;2.90;1.48;;;;;;;-148.88;78.52;-17125.47;5054326;28;20021;-88
2023/09/03 10:56:22;;;;;;;4.32;1.70;;;;;;;-148.88;81.24;-17125.47;5056356;28;20364;-89